Time;durP1;ratioP1;P1;durP2;ratioP2;P2;SDS_P1;SDS_P2;PMS_P1;PMS_P2;Temp;Humidity;BMP_temperature;BMP_pressure;BME280_temperature;BME280_humidity;BME280_pressure;Samples;Min_cycle;Max_cycle;Signal;HPM_P1;HPM_P2
2023/08/16 00:00:59;;;;;;;12.33;9.13;;;20.10;71.40;;;;;;4973456;28;20955;-75
2023/08/16 00:03:25;;;;;;;13.63;10.10;;;20.10;72.10;;;;;;4973520;28;20404;-73
2023/08/16 00:05:52;;;;;;;15.18;9.95;;;20.20;70.20;;;;;;4973399;28;20881;-73
2023/08/16 00:08:18;;;;;;;17.23;10.35;;;20.20;70.20;;;;;;4973306;28;20443;-74
2023/08/16 00:10:46;;;;;;;17.83;9.90;;;20.10;71.90;;;;;;4973451;28;20889;-74
2023/08/16 00:13:21;;;;;;;16.33;10.20;;;20.10;71.40;;;;;;4972915;28;20479;-74
2023/08/16 00:15:46;;;;;;;15.82;9.70;;;20.10;71.80;;;;;;4972068;28;20770;-74
2023/08/16 00:18:12;;;;;;;15.68;10.90;;;20.10;72.70;;;;;;4973188;28;20396;-73
2023/08/16 00:20:37;;;;;;;14.17;10.23;;;20.10;73.00;;;;;;4972795;28;20411;-73
2023/08/16 00:23:03;;;;;;;11.30;10.03;;;20.10;73.10;;;;;;4972943;28;20503;-73
2023/08/16 00:25:31;;;;;;;16.30;10.30;;;20.10;73.10;;;;;;4973564;28;20470;-75
2023/08/16 00:27:57;;;;;;;17.52;10.80;;;20.10;73.70;;;;;;4976035;28;20395;-73
2023/08/16 00:30:25;;;;;;;19.73;10.90;;;20.10;74.40;;;;;;4977009;28;20459;-74
2023/08/16 00:32:51;;;;;;;17.20;10.97;;;20.00;74.00;;;;;;4976449;28;20395;-74
2023/08/16 00:35:17;;;;;;;17.13;10.57;;;20.00;74.90;;;;;;4976745;28;20460;-74
2023/08/16 00:37:43;;;;;;;13.43;10.55;;;19.90;75.60;;;;;;4979795;28;20772;-74
2023/08/16 00:40:09;;;;;;;17.23;11.07;;;19.90;76.40;;;;;;4980172;28;20408;-72
2023/08/16 00:42:35;;;;;;;17.45;11.73;;;19.80;77.00;;;;;;4977349;28;20889;-74
2023/08/16 00:45:01;;;;;;;18.15;11.70;;;19.80;77.70;;;;;;4979337;28;20424;-74
2023/08/16 00:47:27;;;;;;;17.77;11.85;;;19.80;78.90;;;;;;4978227;28;20523;-73
2023/08/16 00:49:53;;;;;;;19.92;12.18;;;19.80;79.40;;;;;;4979120;28;20396;-73
2023/08/16 00:52:18;;;;;;;15.27;11.45;;;19.80;79.50;;;;;;4979855;28;20405;-74
2023/08/16 00:54:44;;;;;;;19.85;11.95;;;19.70;80.30;;;;;;4980388;28;20424;-74
2023/08/16 00:57:10;;;;;;;18.67;11.27;;;19.70;80.70;;;;;;4981426;28;20426;-74
2023/08/16 00:59:36;;;;;;;18.63;12.38;;;19.70;81.00;;;;;;4980564;28;20417;-73
2023/08/16 01:02:04;;;;;;;17.35;12.38;;;19.60;81.40;;;;;;4979026;28;20399;-73
2023/08/16 01:04:30;;;;;;;16.35;11.50;;;19.50;84.40;;;;;;4979149;28;20406;-73
2023/08/16 01:06:57;;;;;;;26.90;11.48;;;19.60;82.10;;;;;;4979982;28;20408;-73
2023/08/16 01:09:24;;;;;;;18.65;12.38;;;19.70;80.90;;;;;;4980374;28;20392;-73
2023/08/16 01:12:21;;;;;;;17.27;11.83;;;19.60;81.00;;;;;;4978933;28;20848;-73
2023/08/16 01:15:20;;;;;;;16.70;11.23;;;19.60;82.00;;;;;;4978845;28;20435;-73
2023/08/16 01:17:47;;;;;;;22.27;11.82;;;19.60;82.30;;;;;;4968243;28;20426;-74
2023/08/16 01:20:15;;;;;;;16.35;11.38;;;19.50;82.70;;;;;;4979749;28;20514;-73
2023/08/16 01:23:08;;;;;;;20.75;11.77;;;19.50;82.70;;;;;;4978695;28;20792;-73
2023/08/16 01:26:11;;;;;;;19.85;12.07;;;19.50;83.20;;;;;;4981419;28;20435;-72
2023/08/16 01:28:37;;;;;;;14.43;11.70;;;19.40;83.60;;;;;;4978292;28;20589;-73
2023/08/16 01:31:04;;;;;;;18.63;11.70;;;19.50;83.20;;;;;;4973795;28;20392;-74
2023/08/16 01:33:32;;;;;;;25.70;11.60;;;19.50;83.40;;;;;;4972674;28;20438;-73
2023/08/16 01:35:58;;;;;;;19.73;12.18;;;19.50;84.00;;;;;;4972847;28;20383;-75
2023/08/16 01:38:27;;;;;;;20.67;12.52;;;19.40;84.10;;;;;;4972506;28;20474;-73
2023/08/16 01:41:02;;;;;;;16.07;11.70;;;19.40;84.20;;;;;;4971836;28;20412;-72
2023/08/16 01:43:30;;;;;;;16.02;11.70;;;19.40;84.70;;;;;;4972068;28;20384;-74
2023/08/16 01:45:58;;;;;;;19.60;12.00;;;19.40;85.00;;;;;;4972308;28;20401;-74
2023/08/16 01:48:25;;;;;;;20.23;12.10;;;19.30;84.70;;;;;;4971114;28;20407;-74
2023/08/16 01:50:51;;;;;;;21.35;12.68;;;19.30;85.00;;;;;;4972401;28;20818;-74
2023/08/16 01:53:18;;;;;;;16.40;11.70;;;19.30;84.80;;;;;;4972291;28;20585;-74
2023/08/16 01:55:44;;;;;;;18.20;11.93;;;19.30;85.30;;;;;;4972021;28;20402;-74
2023/08/16 01:58:12;;;;;;;21.25;11.65;;;19.30;85.30;;;;;;4972293;28;20396;-74
2023/08/16 02:00:38;;;;;;;19.38;12.18;;;19.30;85.80;;;;;;4971914;28;20411;-73
2023/08/16 02:03:03;;;;;;;18.07;12.43;;;19.20;86.20;;;;;;4971779;28;20455;-73
2023/08/16 02:05:32;;;;;;;19.10;11.63;;;19.20;86.60;;;;;;4972132;28;20870;-75
2023/08/16 02:07:57;;;;;;;15.38;11.30;;;19.20;87.40;;;;;;4972417;28;20802;-73
2023/08/16 02:10:23;;;;;;;22.50;12.40;;;19.20;87.50;;;;;;4972190;28;20452;-74
2023/08/16 02:12:49;;;;;;;18.33;12.27;;;19.20;88.10;;;;;;4971921;28;20476;-74
2023/08/16 02:15:22;;;;;;;17.25;12.13;;;19.20;87.60;;;;;;4972002;28;20869;-74
2023/08/16 02:17:51;;;;;;;21.85;12.80;;;19.10;88.40;;;;;;4976318;28;20878;-74
2023/08/16 02:20:21;;;;;;;17.67;12.57;;;19.10;88.20;;;;;;4976340;28;20412;-73
2023/08/16 02:22:55;;;;;;;20.23;12.43;;;19.10;88.30;;;;;;4975915;28;20399;-74
2023/08/16 02:25:20;;;;;;;17.70;12.00;;;19.00;87.60;;;;;;4974761;28;20475;-75
2023/08/16 02:27:46;;;;;;;18.55;12.43;;;19.00;87.70;;;;;;4975619;28;20920;-73
2023/08/16 02:30:11;;;;;;;22.00;12.40;;;19.00;87.00;;;;;;4975481;28;20907;-74
2023/08/16 02:32:37;;;;;;;16.73;11.80;;;19.00;86.90;;;;;;4976311;28;20884;-75
2023/08/16 02:35:03;;;;;;;17.45;12.38;;;19.00;87.40;;;;;;4975868;28;20457;-73
2023/08/16 02:37:32;;;;;;;14.98;11.85;;;19.00;88.20;;;;;;4974406;28;20399;-73
2023/08/16 02:39:58;;;;;;;16.77;12.13;;;18.90;89.00;;;;;;4975691;28;20415;-73
2023/08/16 02:42:23;;;;;;;18.90;12.80;;;19.00;88.20;;;;;;4975291;28;20793;-73
2023/08/16 02:44:49;;;;;;;17.40;12.23;;;19.00;87.40;;;;;;4975357;28;20381;-74
2023/08/16 02:47:14;;;;;;;28.52;12.88;;;18.90;88.60;;;;;;4975605;28;20415;-74
2023/08/16 02:49:40;;;;;;;16.25;12.57;;;18.90;88.80;;;;;;4975265;28;20801;-74
2023/08/16 02:52:05;;;;;;;19.83;12.63;;;18.90;88.30;;;;;;4974820;28;20402;-74
2023/08/16 02:54:31;;;;;;;20.38;12.55;;;18.90;87.60;;;;;;4973797;28;20388;-75
2023/08/16 02:56:57;;;;;;;18.83;12.47;;;18.90;87.40;;;;;;4975016;28;20436;-74
2023/08/16 02:59:23;;;;;;;17.33;12.20;;;18.90;87.20;;;;;;4974802;28;20939;-74
2023/08/16 03:01:48;;;;;;;19.83;13.52;;;18.90;87.40;;;;;;4974693;28;20532;-74
2023/08/16 03:04:14;;;;;;;17.80;12.33;;;19.00;86.60;;;;;;4974875;28;20388;-74
2023/08/16 03:06:39;;;;;;;23.17;12.75;;;18.90;88.30;;;;;;4975140;28;20469;-74
2023/08/16 03:09:05;;;;;;;19.47;12.40;;;19.00;86.20;;;;;;4974682;28;20430;-73
2023/08/16 03:11:31;;;;;;;17.37;11.90;;;19.10;84.30;;;;;;4974123;28;20396;-74
2023/08/16 03:13:56;;;;;;;19.27;12.25;;;19.00;83.90;;;;;;4993173;23;20489;-71
2023/08/16 03:16:22;;;;;;;16.87;11.50;;;19.10;83.70;;;;;;5013797;28;20411;-72
2023/08/16 03:18:47;;;;;;;15.63;11.20;;;19.20;82.80;;;;;;5013562;28;20508;-71
2023/08/16 03:21:13;;;;;;;20.03;11.90;;;19.20;81.80;;;;;;5013737;28;20395;-72
2023/08/16 03:23:38;;;;;;;17.53;12.30;;;19.10;82.80;;;;;;5013678;28;20404;-72
2023/08/16 03:26:04;;;;;;;19.42;12.25;;;19.00;84.90;;;;;;5013470;28;20404;-72
2023/08/16 03:28:29;;;;;;;20.13;12.10;;;19.00;85.40;;;;;;5013101;28;20476;-71
2023/08/16 03:30:55;;;;;;;16.75;12.00;;;18.90;88.70;;;;;;5013187;28;20385;-74
2023/08/16 03:33:20;;;;;;;18.97;12.20;;;18.90;88.50;;;;;;5013497;28;20393;-72
2023/08/16 03:35:46;;;;;;;18.80;12.00;;;19.00;87.60;;;;;;5013117;28;20874;-72
2023/08/16 03:38:11;;;;;;;21.48;12.10;;;19.00;83.80;;;;;;5011927;28;20392;-73
2023/08/16 03:40:37;;;;;;;22.03;12.30;;;19.00;84.70;;;;;;5013227;28;20408;-73
2023/08/16 03:43:03;;;;;;;17.38;12.20;;;19.20;80.10;;;;;;5013121;28;20476;-73
2023/08/16 03:45:28;;;;;;;19.17;12.23;;;19.30;79.00;;;;;;5013000;28;20381;-73
2023/08/16 03:47:56;;;;;;;18.37;12.47;;;19.40;74.30;;;;;;5013002;28;20381;-73
2023/08/16 03:50:22;;;;;;;14.65;11.65;;;19.50;74.10;;;;;;5012769;28;20381;-73
2023/08/16 03:52:48;;;;;;;15.80;11.82;;;19.50;73.10;;;;;;5012702;28;20381;-73
2023/08/16 03:55:14;;;;;;;15.85;10.15;;;19.50;72.60;;;;;;5012755;28;20392;-73
2023/08/16 03:57:39;;;;;;;17.38;11.60;;;19.70;69.10;;;;;;5012949;28;20535;-72
2023/08/16 04:00:09;;;;;;;17.67;11.37;;;19.70;69.10;;;;;;5012973;28;20929;-73
2023/08/16 04:02:34;;;;;;;20.33;11.80;;;19.70;69.80;;;;;;5012630;28;20532;-73
2023/08/16 04:05:11;;;;;;;18.00;11.68;;;19.70;69.30;;;;;;5012509;28;20464;-73
2023/08/16 04:07:37;;;;;;;19.90;11.73;;;19.60;70.90;;;;;;5012797;28;20464;-73
2023/08/16 04:10:03;;;;;;;19.30;11.33;;;19.60;72.40;;;;;;5012592;28;20486;-73
2023/08/16 04:12:29;;;;;;;17.65;11.25;;;19.90;70.00;;;;;;5012828;28;20460;-73
2023/08/16 04:14:54;;;;;;;17.70;11.10;;;20.00;67.10;;;;;;5011444;28;20500;-72
2023/08/16 04:17:20;;;;;;;18.58;11.80;;;20.10;65.90;;;;;;5011351;28;20381;-72
2023/08/16 04:19:45;;;;;;;19.90;11.00;;;20.20;66.40;;;;;;5012514;28;20532;-72
2023/08/16 04:22:11;;;;;;;21.00;10.10;;;20.10;66.00;;;;;;5012369;28;20393;-72
2023/08/16 04:24:37;;;;;;;20.73;10.85;;;19.90;67.20;;;;;;5012251;28;20381;-72
2023/08/16 04:27:03;;;;;;;17.00;10.80;;;19.70;68.60;;;;;;5012505;28;20869;-72
2023/08/16 04:29:28;;;;;;;17.60;10.80;;;19.70;70.10;;;;;;5012413;28;20384;-72
2023/08/16 04:31:56;;;;;;;22.27;10.57;;;19.60;71.10;;;;;;5012047;28;20931;-72
2023/08/16 04:34:21;;;;;;;16.37;10.00;;;19.70;72.20;;;;;;5012191;28;20515;-72
2023/08/16 04:36:47;;;;;;;13.23;9.40;;;19.70;70.50;;;;;;5012354;28;20384;-72
2023/08/16 04:39:12;;;;;;;18.98;9.35;;;19.70;70.10;;;;;;5011683;28;20817;-73
2023/08/16 04:41:38;;;;;;;16.37;10.17;;;19.80;68.90;;;;;;5011836;28;20397;-73
2023/08/16 04:44:04;;;;;;;12.65;9.10;;;19.80;69.10;;;;;;5012223;28;20376;-72
2023/08/16 04:46:30;;;;;;;14.23;9.00;;;19.80;68.60;;;;;;5011714;28;20723;-72
2023/08/16 04:48:56;;;;;;;15.55;9.00;;;19.80;66.90;;;;;;5011392;28;20396;-73
2023/08/16 04:51:21;;;;;;;14.18;9.10;;;19.80;67.90;;;;;;5011747;28;20385;-72
2023/08/16 04:53:48;;;;;;;19.90;8.50;;;19.80;68.50;;;;;;5011670;28;20385;-72
2023/08/16 04:56:13;;;;;;;19.10;9.00;;;19.90;65.60;;;;;;5011921;28;20884;-72
2023/08/16 04:58:39;;;;;;;17.83;8.90;;;19.80;64.70;;;;;;5011631;28;20393;-72
2023/08/16 05:01:04;;;;;;;18.70;8.63;;;19.80;66.00;;;;;;5011270;28;20415;-72
2023/08/16 05:03:30;;;;;;;13.60;8.13;;;19.90;64.80;;;;;;5011921;28;20393;-74
2023/08/16 05:06:01;;;;;;;14.90;8.82;;;19.90;64.60;;;;;;5011333;28;20896;-72
2023/08/16 05:08:26;;;;;;;14.73;8.60;;;19.80;63.70;;;;;;5011244;28;20412;-72
2023/08/16 05:10:52;;;;;;;17.70;8.43;;;19.80;64.70;;;;;;5012719;28;20465;-72
2023/08/16 05:13:18;;;;;;;16.20;8.07;;;19.70;64.90;;;;;;5013811;28;20793;-73
2023/08/16 05:15:44;;;;;;;15.37;8.57;;;19.70;65.80;;;;;;5012804;28;20400;-73
2023/08/16 05:18:11;;;;;;;18.73;7.80;;;19.70;65.90;;;;;;5016389;28;20392;-72
2023/08/16 05:20:37;;;;;;;15.45;7.05;;;19.70;64.70;;;;;;5025108;28;20403;-72
2023/08/16 05:23:03;;;;;;;14.90;8.20;;;19.70;65.60;;;;;;5026233;28;20389;-72
2023/08/16 05:25:29;;;;;;;16.85;7.93;;;19.70;63.50;;;;;;5026662;28;20437;-72
2023/08/16 05:27:58;;;;;;;12.97;7.97;;;19.70;63.20;;;;;;5011435;28;20385;-73
2023/08/16 05:30:27;;;;;;;14.98;8.27;;;19.70;63.40;;;;;;5012022;28;20452;-73
2023/08/16 05:32:56;;;;;;;15.43;8.05;;;19.70;62.70;;;;;;5010819;28;20396;-73
2023/08/16 05:35:22;;;;;;;17.98;8.10;;;19.80;62.30;;;;;;5010781;28;20495;-73
2023/08/16 05:37:48;;;;;;;19.88;8.10;;;19.90;61.80;;;;;;5010644;28;20408;-73
2023/08/16 05:40:14;;;;;;;14.25;8.00;;;20.00;61.20;;;;;;5010960;28;20447;-73
2023/08/16 05:42:40;;;;;;;19.90;7.97;;;20.10;59.90;;;;;;5010244;28;20467;-73
2023/08/16 05:45:06;;;;;;;16.80;9.43;;;20.10;59.80;;;;;;5010455;28;20383;-73
2023/08/16 05:47:32;;;;;;;18.45;8.80;;;20.20;59.30;;;;;;5010426;28;20436;-72
2023/08/16 05:49:59;;;;;;;21.07;8.90;;;20.30;58.70;;;;;;5014212;28;20428;-73
2023/08/16 05:52:25;;;;;;;14.32;8.13;;;20.30;58.40;;;;;;5014158;28;20828;-72
2023/08/16 05:54:50;;;;;;;19.35;8.50;;;20.40;57.40;;;;;;5014902;28;20425;-72
2023/08/16 05:57:16;;;;;;;20.38;8.45;;;20.40;57.70;;;;;;5013657;28;20458;-72
2023/08/16 05:59:41;;;;;;;20.90;9.57;;;20.40;56.80;;;;;;5014971;28;20743;-72
2023/08/16 06:02:07;;;;;;;13.00;7.90;;;20.40;56.80;;;;;;5014789;28;20403;-72
2023/08/16 06:04:33;;;;;;;16.03;8.17;;;20.30;56.40;;;;;;5014636;28;20381;-73
2023/08/16 06:07:00;;;;;;;14.70;8.57;;;20.40;57.20;;;;;;5013383;28;20385;-73
2023/08/16 06:09:25;;;;;;;12.03;7.83;;;20.40;56.30;;;;;;5014573;28;20396;-72
2023/08/16 06:11:51;;;;;;;23.33;8.50;;;20.50;56.20;;;;;;5014121;28;20525;-72
2023/08/16 06:14:16;;;;;;;16.65;7.50;;;20.60;55.00;;;;;;5014142;28;20407;-72
2023/08/16 06:16:42;;;;;;;15.13;8.50;;;20.50;55.00;;;;;;5014239;28;20392;-73
2023/08/16 06:19:08;;;;;;;11.48;7.25;;;20.60;55.10;;;;;;5014260;28;20389;-71
2023/08/16 06:21:34;;;;;;;17.10;8.25;;;20.70;55.10;;;;;;5014000;28;20754;-73
2023/08/16 06:24:00;;;;;;;14.95;7.78;;;20.90;52.80;;;;;;5014457;28;20384;-73
2023/08/16 06:26:25;;;;;;;17.55;8.30;;;21.10;52.40;;;;;;5015431;28;20491;-72
2023/08/16 06:28:51;;;;;;;17.40;7.87;;;21.20;50.40;;;;;;5014261;28;20475;-72
2023/08/16 06:31:17;;;;;;;16.30;8.85;;;21.30;50.90;;;;;;5012554;28;20381;-72
2023/08/16 06:33:43;;;;;;;15.70;9.30;;;21.20;50.50;;;;;;5013759;28;20476;-72
2023/08/16 06:36:09;;;;;;;15.48;9.00;;;21.10;50.70;;;;;;5014792;28;20423;-72
2023/08/16 06:38:34;;;;;;;15.40;9.77;;;21.20;50.80;;;;;;5014040;28;20460;-72
2023/08/16 06:41:00;;;;;;;13.40;9.80;;;21.00;51.50;;;;;;5013626;28;20674;-72
2023/08/16 06:43:25;;;;;;;14.75;9.73;;;21.10;51.40;;;;;;5014098;28;20793;-74
2023/08/16 06:45:51;;;;;;;16.60;9.80;;;21.20;51.10;;;;;;5013886;28;20392;-72
2023/08/16 06:48:16;;;;;;;16.60;9.50;;;21.30;51.40;;;;;;5014012;28;20870;-72
2023/08/16 06:50:43;;;;;;;21.10;10.60;;;21.50;50.70;;;;;;5014146;28;20762;-72
2023/08/16 06:53:08;;;;;;;12.85;10.10;;;21.50;49.40;;;;;;5013748;28;20407;-73
2023/08/16 06:55:35;;;;;;;15.90;11.10;;;21.70;49.70;;;;;;5013458;28;20396;-71
2023/08/16 06:58:05;;;;;;;19.13;11.98;;;21.90;48.00;;;;;;5013866;28;20418;-73
2023/08/16 07:00:31;;;;;;;13.20;10.30;;;21.90;46.90;;;;;;5009084;28;20422;-73
2023/08/16 07:02:57;;;;;;;18.08;11.50;;;22.00;48.60;;;;;;5000184;28;20428;-72
2023/08/16 07:05:25;;;;;;;22.45;14.77;;;22.20;47.30;;;;;;5006040;28;20441;-72
2023/08/16 07:07:51;;;;;;;32.22;20.85;;;22.40;46.40;;;;;;5004823;28;20395;-72
2023/08/16 07:10:16;;;;;;;26.92;19.92;;;22.70;43.70;;;;;;5010137;28;20455;-73
2023/08/16 07:12:44;;;;;;;21.00;14.97;;;22.90;43.60;;;;;;5013222;28;20443;-73
2023/08/16 07:15:11;;;;;;;22.87;16.17;;;23.00;42.50;;;;;;5001118;28;20410;-73
2023/08/16 07:17:36;;;;;;;24.53;16.80;;;23.00;42.00;;;;;;4992034;28;20744;-73
2023/08/16 07:20:02;;;;;;;19.63;15.20;;;23.00;40.80;;;;;;4992243;28;20441;-71
2023/08/16 07:22:28;;;;;;;28.90;19.50;;;23.00;42.00;;;;;;4991736;28;21013;-72
2023/08/16 07:24:54;;;;;;;26.30;19.70;;;23.00;41.90;;;;;;4992348;28;20394;-74
2023/08/16 07:27:20;;;;;;;26.35;19.77;;;23.10;41.60;;;;;;4992205;28;20425;-73
2023/08/16 07:29:46;;;;;;;30.10;19.60;;;23.10;41.10;;;;;;4992206;28;20792;-75
2023/08/16 07:32:12;;;;;;;25.67;18.42;;;23.00;42.20;;;;;;4993853;28;20397;-72
2023/08/16 07:34:38;;;;;;;29.77;19.38;;;23.00;41.90;;;;;;5011110;28;20405;-73
2023/08/16 07:37:03;;;;;;;22.00;17.27;;;23.00;41.80;;;;;;5011285;28;20469;-72
2023/08/16 07:39:31;;;;;;;21.55;17.42;;;23.00;41.70;;;;;;5011077;28;20832;-72
2023/08/16 07:41:56;;;;;;;22.95;17.10;;;23.00;41.70;;;;;;4999906;28;20882;-73
2023/08/16 07:44:22;;;;;;;20.27;15.90;;;23.00;41.60;;;;;;4991382;28;20399;-73
2023/08/16 07:46:47;;;;;;;34.47;15.70;;;23.00;41.80;;;;;;4991218;28;20780;-73
2023/08/16 07:49:13;;;;;;;20.73;14.80;;;23.00;42.20;;;;;;5006495;28;20425;-74
2023/08/16 07:51:39;;;;;;;22.07;15.70;;;22.90;42.10;;;;;;5011030;28;20523;-72
2023/08/16 07:54:04;;;;;;;20.02;15.30;;;23.00;41.80;;;;;;5001498;28;20390;-72
2023/08/16 07:56:31;;;;;;;24.33;17.30;;;23.10;41.40;;;;;;4991613;28;20394;-75
2023/08/16 07:58:56;;;;;;;26.27;16.98;;;22.80;42.70;;;;;;4991171;28;20397;-73
2023/08/16 08:01:22;;;;;;;26.43;18.33;;;22.80;43.60;;;;;;4988444;28;20398;-72
2023/08/16 08:03:47;;;;;;;29.52;19.80;;;22.80;43.30;;;;;;4989855;28;20466;-75
2023/08/16 08:06:13;;;;;;;29.90;18.27;;;22.80;43.60;;;;;;4991139;28;20493;-75
2023/08/16 08:08:38;;;;;;;27.70;18.17;;;22.80;43.50;;;;;;4991800;28;20906;-74
2023/08/16 08:11:09;;;;;;;29.80;19.87;;;22.90;43.20;;;;;;5010841;28;20398;-74
2023/08/16 08:13:34;;;;;;;26.97;17.63;;;23.00;42.40;;;;;;5013754;28;20385;-74
2023/08/16 08:16:00;;;;;;;26.83;17.47;;;23.10;42.70;;;;;;5023749;28;20461;-73
2023/08/16 08:18:26;;;;;;;26.60;16.42;;;23.50;41.50;;;;;;5024654;28;20826;-73
2023/08/16 08:20:51;;;;;;;24.27;16.47;;;23.80;40.20;;;;;;5013910;28;20416;-73
2023/08/16 08:23:17;;;;;;;23.92;17.40;;;23.90;39.20;;;;;;5011329;28;20850;-72
2023/08/16 08:25:44;;;;;;;22.47;17.40;;;24.00;39.00;;;;;;5010444;28;20380;-74
2023/08/16 08:28:10;;;;;;;30.02;18.10;;;24.00;38.50;;;;;;5010811;28;20388;-73
2023/08/16 08:30:35;;;;;;;26.58;17.85;;;24.00;38.60;;;;;;4999465;28;20481;-73
2023/08/16 08:33:01;;;;;;;24.63;17.25;;;23.90;39.10;;;;;;4990926;28;20477;-72
2023/08/16 08:35:27;;;;;;;27.80;17.17;;;23.80;39.50;;;;;;4995906;28;20772;-75
2023/08/16 08:37:53;;;;;;;25.43;17.47;;;23.80;38.70;;;;;;5007460;28;20423;-76
2023/08/16 08:40:19;;;;;;;25.60;17.02;;;23.90;38.80;;;;;;5008829;28;20751;-73
2023/08/16 08:42:49;;;;;;;23.27;16.25;;;24.10;38.20;;;;;;5010063;28;20393;-73
2023/08/16 08:45:15;;;;;;;26.88;16.60;;;24.40;37.50;;;;;;5009487;28;20464;-73
2023/08/16 08:47:43;;;;;;;22.05;15.68;;;24.50;36.50;;;;;;5009358;28;20894;-73
2023/08/16 08:50:09;;;;;;;25.80;14.85;;;24.80;35.90;;;;;;5000621;28;20437;-74
2023/08/16 08:52:35;;;;;;;25.15;15.18;;;25.10;34.80;;;;;;5010285;28;21117;-74
2023/08/16 08:55:02;;;;;;;20.52;14.93;;;25.40;33.90;;;;;;5011037;28;20491;-72
2023/08/16 08:57:30;;;;;;;21.83;14.82;;;25.60;33.70;;;;;;5009540;28;20766;-73
2023/08/16 09:00:00;;;;;;;19.30;14.10;;;25.20;33.90;;;;;;5002070;28;20911;-73
2023/08/16 09:02:29;;;;;;;19.65;14.70;;;25.00;34.60;;;;;;5007505;28;20753;-73
2023/08/16 09:04:59;;;;;;;23.38;14.70;;;24.90;35.50;;;;;;5009334;28;20409;-76
2023/08/16 09:07:26;;;;;;;24.90;15.70;;;25.00;35.10;;;;;;5003394;28;20564;-72
2023/08/16 09:09:52;;;;;;;28.80;15.83;;;25.10;34.20;;;;;;5010955;28;20393;-74
2023/08/16 09:12:19;;;;;;;22.08;16.23;;;24.80;35.20;;;;;;5009080;28;20927;-75
2023/08/16 09:14:45;;;;;;;23.08;15.68;;;24.80;35.00;;;;;;5018295;22;20434;-75
2023/08/16 09:17:11;;;;;;;26.65;16.42;;;25.00;35.30;;;;;;4990589;28;20461;-75
2023/08/16 09:19:45;;;;;;;28.90;17.13;;;25.20;33.60;;;;;;4992550;28;20522;-78
2023/08/16 09:22:12;;;;;;;25.85;17.00;;;24.70;35.00;;;;;;4992839;28;20392;-77
2023/08/16 09:24:40;;;;;;;26.58;17.90;;;24.60;35.60;;;;;;4994422;28;20451;-77
2023/08/16 09:27:06;;;;;;;31.07;18.50;;;24.30;36.60;;;;;;4992896;28;20414;-77
2023/08/16 09:29:31;;;;;;;25.80;17.77;;;24.20;38.00;;;;;;4994036;28;20771;-76
2023/08/16 09:31:57;;;;;;;30.48;18.80;;;24.20;37.80;;;;;;4991010;28;20743;-77
2023/08/16 09:34:24;;;;;;;27.35;17.55;;;24.40;37.30;;;;;;4991457;28;20394;-77
2023/08/16 09:36:51;;;;;;;25.88;17.65;;;24.60;36.90;;;;;;4991777;28;20386;-78
2023/08/16 09:39:17;;;;;;;26.47;16.40;;;24.70;36.40;;;;;;4991782;28;20456;-77
2023/08/16 09:41:49;;;;;;;24.70;15.67;;;24.40;37.10;;;;;;4991459;28;20390;-77
2023/08/16 09:44:15;;;;;;;24.25;16.10;;;24.40;37.30;;;;;;4992215;28;20382;-78
2023/08/16 09:46:41;;;;;;;26.50;16.60;;;24.50;37.80;;;;;;4990433;28;20494;-77
2023/08/16 09:49:08;;;;;;;32.43;16.80;;;24.60;36.50;;;;;;4991087;28;20477;-76
2023/08/16 09:51:41;;;;;;;28.35;16.65;;;24.70;36.20;;;;;;4991621;28;20470;-77
2023/08/16 09:54:13;;;;;;;31.08;16.92;;;24.10;37.10;;;;;;5006960;28;20553;-76
2023/08/16 09:56:40;;;;;;;27.48;16.33;;;23.80;38.30;;;;;;4992313;28;20383;-77
2023/08/16 09:59:07;;;;;;;28.60;16.17;;;23.70;39.60;;;;;;4995766;28;20398;-77
2023/08/16 10:01:35;;;;;;;33.85;17.40;;;23.80;39.80;;;;;;4992488;28;20541;-77
2023/08/16 10:04:02;;;;;;;28.98;15.77;;;24.10;39.10;;;;;;4993710;28;20395;-78
2023/08/16 10:06:31;;;;;;;28.35;16.35;;;24.60;37.60;;;;;;4993233;28;20379;-77
2023/08/16 10:08:57;;;;;;;23.27;14.77;;;24.90;36.00;;;;;;4991301;28;20386;-78
2023/08/16 10:11:23;;;;;;;22.40;13.67;;;25.30;35.20;;;;;;4990754;28;20399;-78
2023/08/16 10:13:49;;;;;;;21.92;13.68;;;25.20;33.60;;;;;;4993557;28;20432;-76
2023/08/16 10:16:17;;;;;;;26.08;13.45;;;25.20;34.10;;;;;;4991631;28;20457;-76
2023/08/16 10:18:45;;;;;;;17.20;12.57;;;25.30;34.50;;;;;;4993527;28;20448;-77
2023/08/16 10:21:15;;;;;;;25.67;14.35;;;25.40;34.10;;;;;;4996727;28;20464;-77
2023/08/16 10:23:41;;;;;;;23.42;13.35;;;25.20;33.90;;;;;;4995033;28;20477;-77
2023/08/16 10:26:19;;;;;;;24.33;12.50;;;25.40;33.60;;;;;;4994688;28;20473;-77
2023/08/16 10:28:50;;;;;;;19.75;12.50;;;25.70;32.80;;;;;;4996155;28;20395;-77
2023/08/16 10:31:22;;;;;;;22.45;13.10;;;25.80;31.70;;;;;;5000343;28;20379;-77
2023/08/16 10:33:50;;;;;;;18.98;12.18;;;25.60;32.50;;;;;;4999907;28;20878;-77
2023/08/16 10:36:16;;;;;;;21.75;13.10;;;25.50;32.80;;;;;;4999427;28;20386;-77
2023/08/16 10:38:42;;;;;;;22.73;12.80;;;25.20;33.10;;;;;;5002831;28;20492;-77
2023/08/16 10:41:12;;;;;;;21.77;13.07;;;25.00;34.50;;;;;;5004346;28;20410;-77
2023/08/16 10:43:38;;;;;;;24.13;12.73;;;25.00;35.00;;;;;;5003062;28;20487;-77
2023/08/16 10:46:04;;;;;;;19.27;12.30;;;25.20;34.30;;;;;;5003401;28;20732;-77
2023/08/16 10:48:35;;;;;;;20.95;12.20;;;25.50;33.60;;;;;;5005305;28;20390;-78
2023/08/16 10:51:07;;;;;;;17.13;11.60;;;25.80;32.90;;;;;;5001824;28;20518;-77
2023/08/16 10:53:37;;;;;;;18.70;11.47;;;26.50;31.10;;;;;;5004042;28;20394;-78
2023/08/16 10:56:07;;;;;;;18.97;10.70;;;27.00;29.20;;;;;;5002874;28;20433;-77
2023/08/16 10:58:50;;;;;;;19.07;12.30;;;27.50;27.70;;;;;;5004636;28;20422;-76
2023/08/16 11:01:32;;;;;;;19.93;12.50;;;27.60;26.90;;;;;;5002546;28;20414;-77
2023/08/16 11:04:02;;;;;;;22.98;14.05;;;27.60;26.60;;;;;;5002549;28;20386;-77
2023/08/16 11:06:29;;;;;;;20.50;12.90;;;27.10;27.90;;;;;;5000864;28;20394;-77
2023/08/16 11:08:55;;;;;;;22.77;15.20;;;26.90;27.40;;;;;;5003103;28;20394;-77
2023/08/16 11:11:21;;;;;;;20.23;14.30;;;26.50;28.60;;;;;;5001612;28;20462;-77
2023/08/16 11:13:47;;;;;;;23.92;15.35;;;25.90;31.00;;;;;;5003996;28;20399;-77
2023/08/16 11:16:12;;;;;;;22.10;15.73;;;25.80;31.50;;;;;;5001444;28;20410;-78
2023/08/16 11:18:41;;;;;;;25.73;16.00;;;25.60;31.90;;;;;;4997389;28;20395;-76
2023/08/16 11:21:07;;;;;;;28.10;17.42;;;25.60;32.00;;;;;;4996017;28;20457;-77
2023/08/16 11:23:37;;;;;;;24.40;16.87;;;25.60;32.10;;;;;;4996259;28;20390;-77
2023/08/16 11:26:04;;;;;;;28.42;17.85;;;25.70;31.90;;;;;;4997801;28;20398;-77
2023/08/16 11:28:33;;;;;;;25.88;18.20;;;25.70;31.90;;;;;;4997111;28;20396;-77
2023/08/16 11:31:00;;;;;;;23.77;16.58;;;25.50;32.10;;;;;;4997211;28;20391;-76
2023/08/16 11:33:37;;;;;;;26.90;18.45;;;25.30;33.10;;;;;;4996385;28;20405;-78
2023/08/16 11:36:08;;;;;;;24.48;18.70;;;25.40;33.20;;;;;;4996056;28;20382;-78
2023/08/16 11:38:34;;;;;;;26.02;18.77;;;25.70;32.40;;;;;;4996018;28;20469;-78
2023/08/16 11:41:01;;;;;;;30.70;20.27;;;26.10;31.90;;;;;;4995226;28;20501;-77
2023/08/16 11:43:34;;;;;;;27.10;19.15;;;26.00;31.00;;;;;;4994521;28;20437;-78
2023/08/16 11:46:04;;;;;;;31.95;20.63;;;26.00;32.10;;;;;;4994877;28;20410;-77
2023/08/16 11:48:30;;;;;;;29.15;21.10;;;26.10;31.10;;;;;;4993684;28;20437;-78
2023/08/16 11:50:56;;;;;;;37.17;21.93;;;25.90;32.40;;;;;;4995906;28;20390;-77
2023/08/16 11:53:30;;;;;;;29.98;21.38;;;26.20;31.60;;;;;;4996231;28;20402;-77
2023/08/16 11:56:02;;;;;;;28.02;20.20;;;26.50;30.80;;;;;;4994494;28;20394;-77
2023/08/16 11:58:28;;;;;;;32.30;20.20;;;27.10;27.80;;;;;;4994635;28;20401;-77
2023/08/16 12:01:04;;;;;;;28.23;18.35;;;27.60;27.70;;;;;;4994120;28;20414;-79
2023/08/16 12:03:37;;;;;;;31.65;20.80;;;28.10;26.50;;;;;;4993434;28;20378;-77
2023/08/16 12:06:08;;;;;;;27.95;19.55;;;28.00;25.80;;;;;;5009227;28;20486;-77
2023/08/16 12:08:34;;;;;;;27.70;18.77;;;27.50;27.30;;;;;;4995367;28;20724;-77
2023/08/16 12:11:01;;;;;;;30.40;19.63;;;27.70;27.30;;;;;;4994239;28;20401;-78
2023/08/16 12:13:26;;;;;;;27.33;18.88;;;27.90;26.70;;;;;;4993824;28;20390;-76
2023/08/16 12:15:52;;;;;;;29.65;21.48;;;28.00;27.00;;;;;;4993982;28;20413;-77
2023/08/16 12:18:20;;;;;;;29.07;20.67;;;27.60;26.30;;;;;;4993958;28;20421;-78
2023/08/16 12:20:49;;;;;;;24.40;19.80;;;27.40;27.60;;;;;;4993327;28;20899;-78
2023/08/16 12:23:19;;;;;;;27.00;20.17;;;27.50;27.70;;;;;;4993490;28;20391;-78
2023/08/16 12:25:44;;;;;;;26.92;20.13;;;27.80;26.30;;;;;;4993495;28;20450;-78
2023/08/16 12:28:10;;;;;;;25.38;18.80;;;27.60;26.50;;;;;;4994096;28;20441;-77